Time;durP1;ratioP1;P1;durP2;ratioP2;P2;SDS_P1;SDS_P2;PMS_P1;PMS_P2;Temp;Humidity;BMP_temperature;BMP_pressure;BME280_temperature;BME280_humidity;BME280_pressure;Samples;Min_cycle;Max_cycle;Signal;HPM_P1;HPM_P2
2022/12/24 00:01:13;;;;;;;;;1.50;1.50;;;;;20.32;44.40;100787.72;4998553;28;45372;-46
2022/12/24 00:03:39;;;;;;;;;3.50;2.00;;;;;20.27;44.59;100780.09;4991409;28;45563;-43
2022/12/24 00:06:06;;;;;;;;;4.50;3.00;;;;;20.32;44.02;100795.63;4980697;28;50831;-44
2022/12/24 00:08:31;;;;;;;;;3.50;2.00;;;;;20.27;44.49;100788.00;4978610;28;45768;-46
2022/12/24 00:10:57;;;;;;;;;6.00;3.00;;;;;20.31;44.26;100792.16;4978915;28;45226;-45
2022/12/24 00:13:22;;;;;;;;;2.50;2.00;;;;;20.27;44.29;100774.81;4981193;28;45623;-45
2022/12/24 00:15:48;;;;;;;;;2.75;1.00;;;;;20.29;44.05;100791.38;4971728;28;56773;-44
2022/12/24 00:18:13;;;;;;;;;2.00;2.00;;;;;20.31;43.99;100788.66;4996364;28;45254;-44
2022/12/24 00:20:39;;;;;;;;;3.25;1.50;;;;;20.31;44.09;100783.41;4983958;28;45322;-46
2022/12/24 00:23:04;;;;;;;;;2.00;1.75;;;;;20.27;44.36;100776.63;4979552;28;45526;-43
2022/12/24 00:25:29;;;;;;;;;3.25;2.00;;;;;20.26;44.14;100783.66;4978274;28;52966;-44
2022/12/24 00:27:55;;;;;;;;;2.00;1.00;;;;;20.30;44.07;100793.09;4978404;28;45483;-45
2022/12/24 00:30:20;;;;;;;;;5.67;3.00;;;;;20.30;44.18;100795.72;4977917;28;52918;-44
2022/12/24 00:32:45;;;;;;;;;2.00;2.00;;;;;20.31;43.83;100793.94;4965840;28;45459;-44
2022/12/24 00:35:11;;;;;;;;;2.75;2.00;;;;;20.30;44.09;100784.31;4991622;28;45299;-43
2022/12/24 00:37:36;;;;;;;;;3.33;3.00;;;;;20.29;44.20;100791.38;4991935;28;64711;-48
2022/12/24 00:40:02;;;;;;;;;2.67;2.00;;;;;20.29;44.40;100799.28;4986396;28;64462;-44
2022/12/24 00:42:27;;;;;;;;;4.00;2.00;;;;;20.25;44.09;100800.38;4981580;28;45285;-45
2022/12/24 00:44:52;;;;;;;;;5.50;1.50;;;;;20.29;44.33;100815.06;4978284;28;52018;-46
2022/12/24 00:47:18;;;;;;;;;3.33;2.33;;;;;20.29;44.33;100825.59;4978105;28;58605;-45
2022/12/24 00:49:43;;;;;;;;;2.00;2.00;;;;;20.27;44.00;100824.84;4994883;28;53944;-45
2022/12/24 00:52:08;;;;;;;;;5.75;2.00;;;;;20.28;44.37;100817.81;5005748;28;44878;-47
2022/12/24 00:54:34;;;;;;;;;2.00;2.00;;;;;20.30;44.20;100829.94;4994297;28;45573;-43
2022/12/24 00:56:59;;;;;;;;;3.00;1.75;;;;;20.26;43.87;100801.25;4986423;28;45434;-47
2022/12/24 00:59:24;;;;;;;;;2.00;2.00;;;;;20.29;44.08;100812.44;5004374;28;47047;-44
2022/12/24 01:01:50;;;;;;;;;2.00;2.00;;;;;20.29;44.33;100833.50;4980363;28;58321;-43
2022/12/24 01:06:58;;;;;;;;;1.50;1.50;;;;;20.28;43.84;100830.97;4962927;28;45315;-46
2022/12/24 01:09:24;;;;;;;;;1.67;1.67;;;;;20.28;44.31;100839.69;4977493;28;62947;-45
2022/12/24 01:11:49;;;;;;;;;1.50;1.50;;;;;20.28;43.78;100839.69;4977685;28;54301;-44
2022/12/24 01:14:15;;;;;;;;;0.00;0.00;;;;;20.28;44.28;100826.53;4977700;28;65485;-46
2022/12/24 01:16:40;;;;;;;;;2.00;2.00;;;;;20.28;43.94;100813.38;4991800;28;53953;-44
2022/12/24 01:19:05;;;;;;;;;5.25;2.25;;;;;20.26;44.07;100823.13;4997288;28;45413;-45
2022/12/24 01:21:31;;;;;;;;;2.75;2.75;;;;;20.28;43.75;100823.06;4980861;28;45274;-44
2022/12/24 01:23:56;;;;;;;;;3.00;2.00;;;;;20.27;44.00;100809.03;4977195;28;63165;-44
2022/12/24 01:26:21;;;;;;;;;6.25;2.50;;;;;20.24;44.23;100803.94;4977239;28;45215;-44
2022/12/24 01:28:46;;;;;;;;;5.50;3.00;;;;;20.28;44.08;100825.69;4977352;28;45179;-46
2022/12/24 01:31:17;;;;;;;;;3.00;3.00;;;;;20.22;43.82;100826.88;4979142;28;45356;-44
2022/12/24 01:33:44;;;;;;;;;3.75;1.00;;;;;20.26;43.96;100841.56;4978652;28;46488;-46
2022/12/24 01:36:11;;;;;;;;;7.50;3.00;;;;;20.26;43.71;100841.56;4998135;28;45380;-47
2022/12/24 01:38:36;;;;;;;;;4.50;2.00;;;;;20.22;43.46;100837.41;4972968;28;44710;-48
2022/12/24 01:43:45;;;;;;;;;3.75;2.00;;;;;20.26;44.06;100828.41;4977461;28;45840;-43
2022/12/24 01:46:18;;;;;;;;;2.25;2.00;;;;;20.26;43.85;100841.56;4976514;28;67383;-44
2022/12/24 01:48:51;;;;;;;;;4.75;1.50;;;;;20.26;44.09;100840.72;4977534;28;45383;-46
2022/12/24 01:51:31;;;;;;;;;3.00;2.00;;;;;20.25;43.76;100845.13;4982586;28;45290;-44
2022/12/24 01:54:02;;;;;;;;;2.00;2.00;;;;;20.22;44.09;100838.25;4984827;28;45500;-45
2022/12/24 01:56:31;;;;;;;;;4.75;2.75;;;;;20.26;43.96;100849.44;4978258;28;45788;-48
2022/12/24 01:59:04;;;;;;;;;2.25;1.75;;;;;20.21;43.63;100848.88;4977110;28;45338;-43
2022/12/24 02:01:29;;;;;;;;;2.75;2.00;;;;;20.26;43.59;100861.78;4976966;28;45510;-43
2022/12/24 02:03:55;;;;;;;;;4.33;2.00;;;;;20.21;43.98;100846.22;4976426;28;59944;-47
2022/12/24 02:06:21;;;;;;;;;2.50;2.50;;;;;20.21;43.76;100846.22;4988139;28;45230;-44
2022/12/24 02:08:46;;;;;;;;;3.50;1.00;;;;;20.20;43.89;100850.63;4998089;28;45267;-47
2022/12/24 02:11:14;;;;;;;;;4.25;3.00;;;;;20.25;44.00;100879.31;4978637;28;45409;-45
2022/12/24 02:13:43;;;;;;;;;6.00;3.00;;;;;20.22;44.10;100866.34;4997312;28;45564;-46
2022/12/24 02:16:52;;;;;;;;;5.25;2.00;;;;;20.27;43.95;100874.00;4986709;28;45877;-45
2022/12/24 02:20:08;;;;;;;;;5.75;2.75;;;;;20.25;43.93;100868.81;4980615;28;45246;-46
2022/12/24 02:22:51;;;;;;;;;4.00;2.00;;;;;20.24;44.10;100856.56;4955295;28;45313;-45
2022/12/24 02:25:43;;;;;;;;;3.50;2.00;;;;;20.24;43.46;100864.47;4979793;28;59197;-46
2022/12/24 02:28:40;;;;;;;;;2.00;2.00;;;;;20.16;43.88;100842.97;4985911;28;45398;-46
2022/12/24 02:31:14;;;;;;;;;3.25;1.50;;;;;20.19;43.52;100858.63;4945844;28;45488;-44
2022/12/24 02:34:14;;;;;;;;;3.50;2.00;;;;;20.24;44.08;100872.38;4980377;28;45762;-47
2022/12/24 02:36:48;;;;;;;;;4.75;2.75;;;;;20.22;44.04;100869.81;4980139;28;46308;-47
2022/12/24 02:39:22;;;;;;;;;2.75;2.25;;;;;20.21;43.98;100852.34;4980312;28;45765;-49
2022/12/24 02:42:07;;;;;;;;;3.00;2.00;;;;;20.22;43.63;100858.47;5007790;28;44837;-46
2022/12/24 02:44:45;;;;;;;;;3.00;2.75;;;;;20.24;43.52;100843.41;4984713;28;45241;-46
2022/12/24 02:47:13;;;;;;;;;1.00;1.00;;;;;20.21;43.92;100847.06;4979540;28;46405;-47
2022/12/24 02:49:44;;;;;;;;;2.00;1.50;;;;;20.18;43.95;100846.38;4979535;28;45265;-43
2022/12/24 02:52:28;;;;;;;;;3.00;1.00;;;;;20.21;43.88;100857.59;4980144;28;45403;-44
2022/12/24 02:54:54;;;;;;;;;5.00;2.00;;;;;20.22;43.54;100877.72;4982155;28;45484;-45
2022/12/24 02:57:33;;;;;;;;;4.25;2.25;;;;;20.20;43.98;100869.06;4992117;28;46248;-49
2022/12/24 03:00:06;;;;;;;;;2.00;2.00;;;;;20.22;43.54;100855.84;4998765;28;45092;-47
2022/12/24 03:02:40;;;;;;;;;3.00;2.00;;;;;20.22;43.69;100855.84;4980986;28;45371;-46
2022/12/24 03:05:18;;;;;;;;;3.75;2.00;;;;;20.21;43.56;100856.75;4986192;28;45584;-45
2022/12/24 03:07:55;;;;;;;;;2.00;1.50;;;;;20.21;43.95;100840.97;4987326;28;46116;-45
2022/12/24 03:10:56;;;;;;;;;2.00;2.00;;;;;20.22;43.82;100850.56;4979911;28;45370;-44
2022/12/24 03:13:23;;;;;;;;;3.25;2.00;;;;;20.20;43.74;100847.16;4979569;28;45349;-44
2022/12/24 03:15:49;;;;;;;;;2.75;2.00;;;;;20.20;43.54;100844.53;4979829;28;45394;-46
2022/12/24 03:18:19;;;;;;;;;2.75;2.00;;;;;20.18;43.71;100835.88;4979217;28;46449;-45
2022/12/24 03:20:53;;;;;;;;;1.00;1.00;;;;;20.22;43.69;100850.56;4979376;28;45980;-44
2022/12/24 03:23:18;;;;;;;;;2.00;1.75;;;;;20.20;43.85;100844.53;4979854;28;45349;-44
2022/12/24 03:25:44;;;;;;;;;4.75;3.00;;;;;20.19;43.66;100833.13;4979280;28;45263;-45
2022/12/24 03:28:16;;;;;;;;;4.25;1.50;;;;;20.20;43.98;100824.31;4978125;28;45585;-44
2022/12/24 03:30:44;;;;;;;;;2.00;1.00;;;;;20.17;43.89;100834.16;4979182;28;45181;-45
2022/12/24 03:33:10;;;;;;;;;5.50;2.25;;;;;20.20;43.84;100839.25;4979170;28;45502;-43
2022/12/24 03:35:35;;;;;;;;;2.00;1.00;;;;;20.21;43.90;100833.06;4979536;28;45413;-47
2022/12/24 03:38:01;;;;;;;;;5.75;2.75;;;;;20.20;43.39;100834.00;4980191;28;52227;-45
2022/12/24 03:40:26;;;;;;;;;3.00;2.00;;;;;20.20;43.86;100834.00;4988388;28;57330;-44
2022/12/24 03:42:51;;;;;;;;;1.00;1.00;;;;;20.18;43.86;100847.22;4988312;28;63856;-44
2022/12/24 03:45:17;;;;;;;;;4.00;2.50;;;;;20.18;43.85;100846.38;4994039;28;45724;-47
2022/12/24 03:47:42;;;;;;;;;4.25;2.00;;;;;20.21;43.54;100856.75;4981826;28;45293;-45
2022/12/24 03:50:08;;;;;;;;;6.33;2.00;;;;;20.20;43.45;100862.94;4960656;28;65688;-45
2022/12/24 03:52:33;;;;;;;;;1.50;0.00;;;;;20.19;43.65;100859.44;4978861;28;45465;-47
2022/12/24 03:54:58;;;;;;;;;5.75;3.25;;;;;20.20;43.77;100855.06;4978809;28;45486;-43
2022/12/24 03:57:24;;;;;;;;;5.00;1.50;;;;;20.19;43.42;100856.81;4978630;28;49511;-44
2022/12/24 03:59:49;;;;;;;;;3.75;1.50;;;;;20.18;43.98;100856.91;4978677;28;45411;-44
2022/12/24 04:02:15;;;;;;;;;3.75;1.75;;;;;20.20;43.71;100860.31;4979068;28;45398;-45
2022/12/24 04:04:40;;;;;;;;;2.50;2.25;;;;;20.14;43.40;100850.09;4986730;28;45559;-46
2022/12/24 04:07:05;;;;;;;;;5.00;3.00;;;;;20.19;43.66;100866.50;5003327;28;70614;-44
2022/12/24 04:09:31;;;;;;;;;2.50;2.00;;;;;20.17;43.87;100871.00;4993376;28;45351;-48
2022/12/24 04:11:56;;;;;;;;;2.00;2.00;;;;;20.19;43.43;100874.41;4983347;28;46572;-47
2022/12/24 04:14:22;;;;;;;;;3.00;2.50;;;;;20.17;43.91;100877.13;4992400;28;45211;-44
2022/12/24 04:16:47;;;;;;;;;4.75;2.00;;;;;20.18;43.98;100884.06;4992671;28;45278;-45
2022/12/24 04:19:12;;;;;;;;;4.67;2.33;;;;;20.14;43.87;100879.03;4985726;28;67446;-45
2022/12/24 04:21:37;;;;;;;;;3.00;2.33;;;;;20.18;43.60;100886.69;4983506;28;49494;-43
2022/12/24 04:24:03;;;;;;;;;2.00;2.00;;;;;20.18;43.49;100883.22;4978187;28;51310;-44
2022/12/24 04:26:28;;;;;;;;;3.00;2.00;;;;;20.18;43.46;100891.97;4978269;28;45757;-44
2022/12/24 04:28:54;;;;;;;;;5.25;2.75;;;;;20.18;43.35;100896.38;4978720;28;45528;-44
2022/12/24 04:31:19;;;;;;;;;2.25;1.25;;;;;20.16;43.44;100887.72;4989963;28;45231;-47
2022/12/24 04:33:45;;;;;;;;;2.75;1.75;;;;;20.19;43.70;100903.34;5005046;28;44851;-47
2022/12/24 04:36:14;;;;;;;;;3.00;2.00;;;;;20.19;43.68;100895.47;4978705;28;46229;-47
2022/12/24 04:38:39;;;;;;;;;3.00;2.75;;;;;20.17;43.38;100903.44;4961051;28;45376;-44
2022/12/24 04:41:08;;;;;;;;;3.75;3.00;;;;;20.19;43.82;100900.72;4978388;28;45428;-44
2022/12/24 04:43:34;;;;;;;;;3.75;1.00;;;;;20.18;43.50;100888.50;4978531;28;45220;-46
2022/12/24 04:46:13;;;;;;;;;2.50;2.00;;;;;20.17;43.82;100902.59;4977736;28;47012;-46
2022/12/24 04:48:40;;;;;;;;;3.00;3.00;;;;;20.16;43.91;100912.28;4992992;28;45405;-45
2022/12/24 04:51:06;;;;;;;;;5.50;2.00;;;;;20.17;43.46;100910.47;4992310;28;45326;-46
2022/12/24 04:53:32;;;;;;;;;4.00;1.00;;;;;20.16;43.19;100906.13;4979900;28;45271;-47
2022/12/24 04:55:58;;;;;;;;;1.25;1.25;;;;;20.16;43.36;100907.00;4985558;28;46649;-44
2022/12/24 04:58:24;;;;;;;;;3.00;2.00;;;;;20.16;43.95;100906.13;4983496;28;45398;-45
2022/12/24 05:00:50;;;;;;;;;3.00;3.00;;;;;20.17;43.40;100913.09;4978110;28;45293;-46
2022/12/24 05:03:15;;;;;;;;;5.50;1.50;;;;;20.16;44.00;100909.63;4976788;28;45376;-44
2022/12/24 05:05:41;;;;;;;;;3.50;2.00;;;;;20.15;43.78;100914.97;4977468;28;45452;-44
2022/12/24 05:08:06;;;;;;;;;6.50;2.75;;;;;20.17;43.86;100921.00;4983210;28;45335;-44
2022/12/24 05:10:31;;;;;;;;;1.25;1.25;;;;;20.16;43.61;100914.03;5002014;28;45313;-45
2022/12/24 05:12:56;;;;;;;;;1.00;1.00;;;;;20.16;43.73;100916.66;4978759;28;45385;-46
2022/12/24 05:15:22;;;;;;;;;3.50;2.00;;;;;20.17;43.96;100915.72;4977569;28;47310;-46
2022/12/24 05:17:48;;;;;;;;;3.50;2.00;;;;;20.14;43.70;100914.13;4977496;28;45371;-45
2022/12/24 05:20:13;;;;;;;;;4.00;2.00;;;;;20.12;43.49;100902.81;4977334;28;45761;-44
2022/12/24 05:28:06;;;;;;;;;4.00;2.00;;;;;20.13;43.54;100914.19;4977617;28;45945;-46
2022/12/24 05:30:31;;;;;;;;;7.50;3.00;;;;;20.14;43.93;100908.88;4978233;28;48823;-54
2022/12/24 05:32:57;;;;;;;;;3.25;2.75;;;;;20.15;43.51;100909.69;4988385;28;56221;-45
2022/12/24 05:35:22;;;;;;;;;1.75;1.75;;;;;20.10;43.35;100891.53;4988291;28;45389;-47
2022/12/24 05:37:47;;;;;;;;;0.00;0.00;;;;;20.14;43.35;100900.97;4977310;28;64822;-44
2022/12/24 05:40:12;;;;;;;;;4.50;3.00;;;;;20.12;43.78;100887.03;4959684;28;46807;-44
2022/12/24 05:42:38;;;;;;;;;4.00;2.00;;;;;20.12;43.67;100894.09;4977427;28;45389;-46
2022/12/24 05:45:03;;;;;;;;;1.33;1.33;;;;;20.14;43.34;100898.34;4976149;28;70121;-46
2022/12/24 05:47:29;;;;;;;;;1.00;1.00;;;;;20.12;43.32;100894.09;4977143;28;45416;-44
2022/12/24 05:49:54;;;;;;;;;3.50;2.75;;;;;20.14;43.64;100893.06;4977712;28;45499;-46
2022/12/24 05:52:19;;;;;;;;;3.50;2.00;;;;;20.14;43.45;100892.22;4983933;28;45535;-46
2022/12/24 05:54:45;;;;;;;;;6.33;2.33;;;;;20.14;43.75;100887.81;4990531;28;59219;-44
2022/12/24 05:57:10;;;;;;;;;4.00;2.50;;;;;20.10;43.33;100869.63;4993314;28;44839;-46
2022/12/24 05:59:35;;;;;;;;;2.00;2.00;;;;;20.13;43.71;100874.72;4995312;28;45259;-45
2022/12/24 06:02:00;;;;;;;;;5.50;2.00;;;;;20.10;43.87;100874.91;4998698;28;44891;-43
2022/12/24 06:04:26;;;;;;;;;4.00;1.75;;;;;20.13;43.26;100887.88;4979315;28;47044;-45
2022/12/24 06:06:51;;;;;;;;;3.25;2.00;;;;;20.14;43.37;100876.41;4991939;28;45241;-44
2022/12/24 06:09:16;;;;;;;;;2.00;2.00;;;;;20.13;43.34;100878.22;4989222;28;55634;-46
2022/12/24 06:11:42;;;;;;;;;3.00;2.50;;;;;20.12;43.73;100873.03;4993203;28;45238;-43
2022/12/24 06:14:07;;;;;;;;;2.75;2.25;;;;;20.13;43.82;100879.97;4989920;28;50163;-44
2022/12/24 06:16:33;;;;;;;;;4.00;3.00;;;;;20.12;43.41;100886.19;4984331;28;45175;-46
2022/12/24 06:18:58;;;;;;;;;5.50;2.25;;;;;20.08;43.69;100891.63;4983569;28;45314;-47
2022/12/24 06:21:23;;;;;;;;;2.00;2.00;;;;;20.07;43.85;100892.53;4983594;28;64927;-43
2022/12/24 06:23:49;;;;;;;;;4.75;1.75;;;;;20.13;43.14;100895.75;4992935;28;45287;-47
2022/12/24 06:26:18;;;;;;;;;4.25;1.75;;;;;20.10;43.29;100896.78;4994129;28;45285;-48
2022/12/24 06:28:45;;;;;;;;;4.50;1.00;;;;;20.09;43.54;100887.19;4983452;28;45381;-46
2022/12/24 06:31:14;;;;;;;;;1.75;1.75;;;;;20.11;43.64;100890.59;4983615;28;45964;-46
2022/12/24 06:33:39;;;;;;;;;6.75;2.75;;;;;20.12;43.46;100883.56;4983088;28;46291;-44
2022/12/24 06:36:07;;;;;;;;;2.00;2.00;;;;;20.08;43.82;100883.72;4982614;28;73081;-45
2022/12/24 06:38:32;;;;;;;;;2.50;2.00;;;;;20.10;43.67;100881.00;4988617;28;45337;-45
2022/12/24 06:40:58;;;;;;;;;4.25;2.75;;;;;20.11;43.52;100887.97;4989178;28;45534;-46
2022/12/24 06:43:23;;;;;;;;;2.75;2.25;;;;;20.10;43.90;100883.63;4989470;28;46125;-44
2022/12/24 06:45:49;;;;;;;;;2.50;2.00;;;;;20.07;43.45;100871.50;4989952;28;66610;-44
2022/12/24 06:48:15;;;;;;;;;2.00;2.00;;;;;20.10;43.43;100877.53;4990622;28;45385;-46
2022/12/24 06:50:41;;;;;;;;;3.25;2.00;;;;;20.05;43.39;100868.09;4989758;28;45445;-45
2022/12/24 06:53:06;;;;;;;;;2.50;2.00;;;;;20.11;43.90;100887.13;5002957;28;46288;-47
2022/12/24 06:55:31;;;;;;;;;5.25;2.25;;;;;20.12;43.83;100886.19;4992257;28;45233;-45
2022/12/24 06:57:57;;;;;;;;;1.50;1.50;;;;;20.06;43.66;100877.69;4983726;28;51908;-45
2022/12/24 07:00:22;;;;;;;;;4.75;3.00;;;;;20.10;43.55;100888.06;4987987;28;45163;-45
2022/12/24 07:02:47;;;;;;;;;2.25;2.00;;;;;20.11;43.78;100892.38;4980624;28;45433;-46
2022/12/24 07:05:14;;;;;;;;;5.75;2.25;;;;;20.08;43.22;100894.25;4984218;28;45888;-47
2022/12/24 07:07:41;;;;;;;;;2.75;2.00;;;;;20.07;43.91;100887.28;4995685;28;45238;-46
2022/12/24 07:10:10;;;;;;;;;3.50;2.50;;;;;20.11;43.43;100887.13;5000559;28;45352;-47
2022/12/24 07:12:35;;;;;;;;;1.50;1.50;;;;;20.10;43.74;100891.53;4997432;28;44905;-47
2022/12/24 07:15:00;;;;;;;;;3.75;1.00;;;;;20.06;43.89;100888.22;4997749;28;61172;-49
2022/12/24 07:17:26;;;;;;;;;4.50;2.00;;;;;20.10;43.24;100890.69;4981070;28;45330;-47
2022/12/24 07:19:51;;;;;;;;;6.75;2.50;;;;;20.05;43.40;100897.03;4981837;28;45284;-43
2022/12/24 07:22:16;;;;;;;;;2.00;1.00;;;;;20.10;43.80;100914.38;4968690;28;45875;-46
2022/12/24 07:24:42;;;;;;;;;3.00;2.00;;;;;20.10;43.64;100917.84;4984116;28;45258;-47
2022/12/24 07:27:07;;;;;;;;;2.67;2.00;;;;;20.10;43.62;100914.38;4979544;28;52218;-44
2022/12/24 07:29:33;;;;;;;;;2.00;2.00;;;;;20.10;43.47;100911.72;4979719;28;45519;-43
2022/12/24 07:31:58;;;;;;;;;3.00;2.00;;;;;20.10;43.15;100911.72;4978915;28;45206;-45
2022/12/24 07:34:23;;;;;;;;;2.67;1.00;;;;;20.09;43.81;100910.88;4978360;28;57155;-45
2022/12/24 07:36:49;;;;;;;;;1.00;1.00;;;;;20.08;43.79;100911.78;4978859;28;46374;-47
2022/12/24 07:39:14;;;;;;;;;0.33;0.33;;;;;20.08;43.33;100925.81;4978573;28;50648;-44
2022/12/24 07:41:39;;;;;;;;;6.00;2.00;;;;;20.05;43.39;100907.56;4978604;28;46279;-46
2022/12/24 07:44:04;;;;;;;;;2.75;1.50;;;;;20.06;43.04;100925.03;4978818;28;45249;-48
2022/12/24 07:46:30;;;;;;;;;1.25;1.25;;;;;20.04;43.40;100913.75;4978238;28;59359;-44
2022/12/24 07:48:55;;;;;;;;;2.00;1.25;;;;;20.09;43.60;100937.19;4978590;28;45195;-47
2022/12/24 07:51:20;;;;;;;;;3.00;2.00;;;;;20.04;43.21;100937.41;4978472;28;46080;-44
2022/12/24 07:53:46;;;;;;;;;4.25;1.00;;;;;20.08;43.23;100940.75;4978418;28;46369;-45
2022/12/24 07:56:15;;;;;;;;;3.50;1.50;;;;;20.07;43.79;100933.78;4979808;28;45337;-46
2022/12/24 07:58:41;;;;;;;;;0.75;0.75;;;;;20.06;43.39;100930.31;4986516;28;45346;-45
2022/12/24 08:01:08;;;;;;;;;2.00;1.00;;;;;20.05;43.50;100930.41;4983595;28;46290;-47
2022/12/24 08:03:34;;;;;;;;;3.00;2.00;;;;;20.05;43.39;100933.03;4979050;28;45364;-44
2022/12/24 08:05:59;;;;;;;;;1.00;1.00;;;;;20.08;43.22;100940.75;4961649;28;45505;-47
2022/12/24 08:08:25;;;;;;;;;1.25;1.00;;;;;20.07;43.42;100939.91;4980721;28;45210;-47
2022/12/24 08:10:50;;;;;;;;;2.25;2.25;;;;;20.07;43.17;100939.91;4981635;28;46574;-45
2022/12/24 08:13:16;;;;;;;;;2.25;1.50;;;;;20.06;43.45;100934.72;4989313;28;45321;-48
2022/12/24 08:15:41;;;;;;;;;2.25;1.50;;;;;20.08;42.96;100938.09;5006477;28;44814;-48
2022/12/24 08:18:07;;;;;;;;;1.75;1.75;;;;;20.08;43.47;100946.88;4982008;28;45251;-44
2022/12/24 08:20:32;;;;;;;;;2.50;2.00;;;;;20.07;43.10;100950.44;4978703;28;46338;-45
2022/12/24 08:22:58;;;;;;;;;3.00;2.75;;;;;20.07;43.27;100955.69;4978240;28;45374;-47
2022/12/24 08:25:23;;;;;;;;;4.00;1.00;;;;;20.06;43.49;100959.25;4961165;28;45265;-45
2022/12/24 08:27:49;;;;;;;;;1.50;1.50;;;;;20.07;43.71;100950.44;4983301;28;45536;-46
2022/12/24 08:30:14;;;;;;;;;3.00;1.00;;;;;20.07;43.23;100960.09;4999770;28;47022;-47
2022/12/24 08:32:40;;;;;;;;;2.00;1.50;;;;;20.08;43.25;100977.56;4984275;28;45309;-47
